createdAt,value
2023-04-30T00:07:09.969Z,2.80
2023-04-30T00:09:38.554Z,4.95
2023-04-30T00:12:07.455Z,3.83
2023-04-30T00:14:36.605Z,3.72
2023-04-30T00:17:05.249Z,4.38
2023-04-30T00:19:33.774Z,5.35
2023-04-30T00:22:02.664Z,4.20
2023-04-30T00:24:32.779Z,3.17
2023-04-30T00:27:01.425Z,5.32
2023-04-30T00:29:29.947Z,3.55
2023-04-30T00:31:58.836Z,2.70
2023-04-30T00:34:27.508Z,3.90
2023-04-30T00:36:56.058Z,3.42
2023-04-30T00:39:24.660Z,3.17
2023-04-30T00:41:54.612Z,2.47
2023-04-30T00:44:24.010Z,3.25
2023-04-30T00:46:52.546Z,4.53
2023-04-30T00:49:21.251Z,3.00
2023-04-30T00:51:49.813Z,2.88
2023-04-30T00:54:19.260Z,3.95
2023-04-30T00:56:47.854Z,2.40
2023-04-30T00:59:18.435Z,2.08
2023-04-30T01:01:47.360Z,2.65
2023-04-30T01:04:15.997Z,4.10
2023-04-30T01:06:44.850Z,3.30
2023-04-30T01:09:13.463Z,1.90
2023-04-30T01:11:51.117Z,1.88
2023-04-30T01:14:28.862Z,2.97
2023-04-30T01:17:06.697Z,2.50
2023-04-30T01:19:43.358Z,3.15
2023-04-30T01:22:20.465Z,3.88
2023-04-30T01:25:07.862Z,2.38
2023-04-30T01:28:03.700Z,2.67
2023-04-30T01:30:34.421Z,2.35
2023-04-30T01:33:03.426Z,3.90
2023-04-30T01:36:09.839Z,3.00
2023-04-30T01:38:56.959Z,1.83
2023-04-30T01:41:34.873Z,4.75
2023-04-30T01:44:18.365Z,2.58
2023-04-30T01:46:56.532Z,2.88
2023-04-30T01:49:31.826Z,3.03
2023-04-30T01:52:10.707Z,3.00
2023-04-30T01:54:46.335Z,3.20
2023-04-30T01:57:19.740Z,2.08
2023-04-30T01:59:49.914Z,2.60
2023-04-30T02:02:18.735Z,2.65
2023-04-30T02:04:48.270Z,3.20
2023-04-30T02:07:29.018Z,2.33
2023-04-30T02:09:57.805Z,2.13
2023-04-30T02:12:26.359Z,4.40
2023-04-30T02:27:48.108Z,3.05
2023-04-30T02:30:16.581Z,2.15
2023-04-30T02:32:45.063Z,3.28
2023-04-30T02:35:13.639Z,1.73
2023-04-30T02:37:42.193Z,2.25
2023-04-30T02:40:11.792Z,3.45
2023-04-30T02:42:40.552Z,2.13
2023-04-30T02:45:11.119Z,2.50
2023-04-30T02:47:39.666Z,2.47
2023-04-30T02:50:09.810Z,2.80
2023-04-30T02:52:38.368Z,2.38
2023-04-30T02:55:07.775Z,2.08
2023-04-30T02:57:36.411Z,2.92
2023-04-30T03:00:05.825Z,2.88
2023-04-30T03:02:36.685Z,2.72
2023-04-30T03:05:05.857Z,2.63
2023-04-30T03:07:34.464Z,3.40
2023-04-30T03:10:03.257Z,3.85
2023-04-30T03:12:32.589Z,2.20
2023-04-30T03:15:01.131Z,2.33
2023-04-30T03:17:30.246Z,2.47
2023-04-30T03:20:00.174Z,3.90
2023-04-30T03:22:28.696Z,1.40
2023-04-30T04:07:30.606Z,1.38
2023-04-30T04:09:59.463Z,1.77
2023-04-30T04:12:28.985Z,1.92
2023-04-30T04:14:57.719Z,2.08
2023-04-30T04:17:27.482Z,2.72
2023-04-30T04:19:56.485Z,3.20
2023-04-30T04:22:53.240Z,1.67
2023-04-30T04:25:25.287Z,2.15
2023-04-30T04:27:53.991Z,4.43
2023-04-30T04:30:22.825Z,1.70
2023-04-30T04:32:54.916Z,2.20
2023-04-30T04:35:23.505Z,3.15
2023-04-30T04:37:52.006Z,2.08
2023-04-30T04:40:20.937Z,1.80
2023-04-30T04:42:52.564Z,2.28
2023-04-30T04:45:21.729Z,3.00
2023-04-30T04:47:52.036Z,1.92
2023-04-30T04:50:21.139Z,3.67
2023-04-30T04:52:49.996Z,2.90
2023-04-30T04:55:19.143Z,2.90
2023-04-30T05:07:22.644Z,3.65
2023-04-30T05:09:51.272Z,2.50
2023-04-30T05:12:19.786Z,2.28
2023-04-30T05:14:49.534Z,2.33
2023-04-30T05:17:18.183Z,2.33
2023-04-30T05:19:47.696Z,3.72
2023-04-30T05:22:16.229Z,2.60
2023-04-30T05:24:46.319Z,3.08
2023-04-30T05:27:15.013Z,2.00
2023-04-30T05:29:43.551Z,2.22
2023-04-30T05:32:12.114Z,2.03
2023-04-30T05:34:40.712Z,3.03
2023-04-30T05:37:09.257Z,2.58
2023-04-30T05:39:37.991Z,2.65
2023-04-30T05:42:07.916Z,2.95
2023-04-30T05:44:36.443Z,2.38
2023-04-30T05:47:05.116Z,1.88
2023-04-30T05:49:35.887Z,2.15
2023-04-30T05:52:05.539Z,2.13
2023-04-30T05:54:34.165Z,1.42
2023-04-30T05:57:02.770Z,2.53
2023-04-30T05:59:32.785Z,3.20
2023-04-30T06:02:01.264Z,1.85
2023-04-30T06:04:30.159Z,2.30
2023-04-30T06:06:58.746Z,3.05
2023-04-30T06:09:27.294Z,1.75
2023-04-30T06:11:56.007Z,2.35
2023-04-30T06:14:25.061Z,2.58
2023-04-30T06:16:55.219Z,2.85
2023-04-30T06:19:23.846Z,3.00
2023-04-30T06:21:52.415Z,1.83
2023-04-30T06:24:20.980Z,1.48
2023-04-30T06:26:49.555Z,1.80
2023-04-30T06:29:18.202Z,1.70
2023-04-30T06:31:46.802Z,2.20
2023-04-30T06:34:16.823Z,1.05
2023-04-30T06:36:45.373Z,2.13
2023-04-30T06:39:17.154Z,1.48
2023-04-30T06:41:47.485Z,1.77
2023-04-30T06:44:18.093Z,1.60
2023-04-30T06:46:46.723Z,1.50
2023-04-30T06:49:16.676Z,3.17
2023-04-30T06:51:45.364Z,2.33
2023-04-30T06:54:14.481Z,2.40
2023-04-30T06:56:44.008Z,0.90
2023-04-30T06:59:12.544Z,3.08
2023-04-30T07:01:41.386Z,1.48
2023-04-30T07:04:09.989Z,2.38
2023-04-30T07:06:40.130Z,1.55
2023-04-30T07:09:09.033Z,1.73
2023-04-30T07:11:37.620Z,1.35
2023-04-30T07:14:06.169Z,2.50
2023-04-30T07:16:34.791Z,2.08
2023-04-30T07:19:03.665Z,1.65
2023-04-30T07:21:32.830Z,2.20
2023-04-30T07:24:02.756Z,1.52
2023-04-30T07:26:31.299Z,1.25
2023-04-30T07:28:59.752Z,1.42
2023-04-30T07:31:28.719Z,1.10
2023-04-30T07:33:57.428Z,2.13
2023-04-30T07:36:27.547Z,1.25
2023-04-30T07:38:56.192Z,1.20
2023-04-30T07:44:38.403Z,0.98
2023-04-30T07:47:06.866Z,1.38
2023-04-30T07:49:35.398Z,1.13
2023-04-30T07:52:04.047Z,1.42
2023-04-30T07:54:32.598Z,0.60
2023-04-30T07:57:01.193Z,1.45
2023-04-30T07:59:29.763Z,1.35
2023-04-30T08:02:00.170Z,1.50
2023-04-30T08:04:29.118Z,1.55
2023-04-30T08:06:57.901Z,0.82
2023-04-30T08:09:26.515Z,2.00
2023-04-30T08:11:55.026Z,1.25
2023-04-30T08:14:23.643Z,1.52
2023-04-30T08:16:52.190Z,1.25
2023-04-30T08:19:22.134Z,1.55
2023-04-30T08:21:50.720Z,1.42
2023-04-30T08:24:19.255Z,2.05
2023-04-30T08:26:47.884Z,1.55
2023-04-30T08:29:16.805Z,1.48
2023-04-30T08:31:45.372Z,0.73
2023-04-30T08:34:13.865Z,1.15
2023-04-30T08:36:43.779Z,1.70
2023-04-30T08:39:13.092Z,1.50
2023-04-30T08:41:43.727Z,1.92
2023-04-30T08:44:13.537Z,0.98
2023-04-30T08:46:44.715Z,1.08
2023-04-30T08:49:13.363Z,1.65
2023-04-30T08:51:44.231Z,1.45
2023-04-30T08:54:14.652Z,0.63
2023-04-30T09:03:09.623Z,1.67
2023-04-30T09:05:38.513Z,1.25
2023-04-30T09:08:09.648Z,1.23
2023-04-30T09:10:38.392Z,1.25
2023-04-30T09:13:09.047Z,0.60
2023-04-30T09:15:41.675Z,0.82
2023-04-30T09:18:12.815Z,2.03
2023-04-30T09:20:56.357Z,1.25
2023-04-30T09:23:26.978Z,1.05
2023-04-30T09:25:55.837Z,1.52
2023-04-30T09:28:26.690Z,1.25
2023-04-30T09:30:56.923Z,0.80
2023-04-30T09:33:25.683Z,1.52
2023-04-30T09:35:54.409Z,1.42
2023-04-30T09:38:32.325Z,1.25
2023-04-30T09:41:02.814Z,2.00
2023-04-30T09:43:32.359Z,0.82
2023-04-30T09:46:01.529Z,1.27
2023-04-30T09:48:30.071Z,0.85
2023-04-30T09:50:58.711Z,0.73
2023-04-30T09:53:28.114Z,1.60
2023-04-30T09:56:03.408Z,1.38
2023-04-30T09:58:36.520Z,1.70
2023-04-30T10:01:08.065Z,0.85
2023-04-30T10:03:37.318Z,0.98
2023-04-30T10:06:06.231Z,1.10
2023-04-30T10:08:42.931Z,1.10
2023-04-30T10:11:17.397Z,1.08
2023-04-30T10:13:52.742Z,0.93
2023-04-30T10:16:30.039Z,1.00
2023-04-30T10:19:04.491Z,0.73
2023-04-30T10:21:34.640Z,1.85
2023-04-30T11:28:59.113Z,0.95
2023-04-30T11:31:35.111Z,0.90
2023-04-30T11:34:04.481Z,1.05
2023-04-30T11:36:33.970Z,0.85
2023-04-30T11:39:06.337Z,0.85
2023-04-30T11:41:42.392Z,0.82
2023-04-30T11:44:27.019Z,2.30
2023-04-30T11:46:56.128Z,0.50
2023-04-30T11:49:25.004Z,1.17
2023-04-30T11:51:53.631Z,0.75
2023-04-30T11:54:22.107Z,1.42
2023-04-30T11:56:50.929Z,1.00
2023-04-30T11:59:20.184Z,1.00
2023-04-30T12:01:50.104Z,0.73
2023-04-30T12:04:19.309Z,0.70
2023-04-30T12:06:48.129Z,1.00
2023-04-30T12:09:16.710Z,1.20
2023-04-30T12:11:45.333Z,0.88
2023-04-30T12:14:14.794Z,0.50
2023-04-30T12:16:49.385Z,1.00
2023-04-30T12:19:22.052Z,0.47
2023-04-30T12:21:51.200Z,0.80
2023-04-30T12:24:20.915Z,0.68
2023-04-30T12:26:49.495Z,0.70
2023-04-30T12:29:20.008Z,0.63
2023-04-30T12:31:51.023Z,0.65
2023-04-30T12:34:21.019Z,1.38
2023-04-30T12:36:49.561Z,0.57
2023-04-30T12:39:18.145Z,0.80
2023-04-30T12:41:48.854Z,0.57
2023-04-30T12:44:18.499Z,0.90
2023-04-30T12:46:48.167Z,0.93
2023-04-30T12:49:28.974Z,1.30
2023-04-30T12:52:02.357Z,0.90
2023-04-30T12:54:32.818Z,0.60
2023-04-30T12:57:03.601Z,0.70
2023-04-30T12:59:34.421Z,0.85
2023-04-30T13:02:11.063Z,0.63
2023-04-30T13:04:41.540Z,0.43
2023-04-30T13:07:10.457Z,0.77
2023-04-30T13:09:39.645Z,0.60
2023-04-30T13:12:08.391Z,0.50
2023-04-30T13:14:36.934Z,0.70
2023-04-30T13:17:07.518Z,0.70
2023-04-30T13:19:36.018Z,1.33
2023-04-30T13:22:05.916Z,0.47
2023-04-30T13:24:34.587Z,0.75
2023-04-30T13:27:04.148Z,0.93
2023-04-30T13:29:33.252Z,1.60
2023-04-30T13:32:01.806Z,0.63
2023-04-30T13:34:30.424Z,0.45
2023-04-30T13:36:58.970Z,1.00
2023-04-30T13:39:28.839Z,0.90
2023-04-30T13:41:57.316Z,0.60
2023-04-30T13:44:25.923Z,0.60
2023-04-30T13:46:55.961Z,0.60
2023-04-30T13:49:24.559Z,0.60
2023-04-30T13:51:53.155Z,0.90
2023-04-30T13:54:22.003Z,0.50
2023-04-30T13:56:51.863Z,0.77
2023-04-30T13:59:20.555Z,1.50
2023-04-30T14:01:49.109Z,0.50
2023-04-30T14:04:22.197Z,0.93
2023-04-30T14:06:51.308Z,0.30
2023-04-30T14:09:19.914Z,0.75
2023-04-30T14:11:48.365Z,1.25
2023-04-30T14:14:18.315Z,0.88
2023-04-30T14:16:46.961Z,0.75
2023-04-30T14:19:16.383Z,0.50
2023-04-30T14:21:44.931Z,0.60
2023-04-30T14:24:13.458Z,0.40
2023-04-30T14:26:42.116Z,0.93
2023-04-30T14:29:11.101Z,0.82
2023-04-30T14:31:40.990Z,0.90
2023-04-30T14:34:09.944Z,0.50
2023-04-30T14:36:38.818Z,1.27
2023-04-30T14:39:07.451Z,1.27
2023-04-30T14:41:37.730Z,0.85
2023-04-30T14:44:06.590Z,0.75
2023-04-30T14:46:35.232Z,0.88
2023-04-30T14:49:05.489Z,0.88
2023-04-30T14:51:34.015Z,0.60
2023-04-30T14:54:03.593Z,1.40
2023-04-30T14:56:32.255Z,0.80
2023-04-30T14:59:00.902Z,0.68
2023-04-30T15:01:30.501Z,0.57
2023-04-30T15:03:59.148Z,0.40
2023-04-30T15:06:29.234Z,0.60
2023-04-30T15:08:58.009Z,1.02
2023-04-30T15:11:26.701Z,0.73
2023-04-30T15:13:55.748Z,0.55
2023-04-30T15:16:24.470Z,0.88
2023-04-30T15:18:53.093Z,0.40
2023-04-30T15:21:21.642Z,1.63
2023-04-30T15:23:51.739Z,1.13
2023-04-30T15:26:20.617Z,0.90
2023-04-30T15:28:49.295Z,0.93
2023-04-30T15:31:17.842Z,1.05
2023-04-30T15:33:46.447Z,0.90
2023-04-30T15:36:14.999Z,1.55
2023-04-30T15:38:43.564Z,0.38
2023-04-30T15:41:13.437Z,0.52
2023-04-30T15:43:41.919Z,1.08
2023-04-30T15:46:10.537Z,0.40
2023-04-30T15:48:39.197Z,0.70
2023-04-30T15:51:07.788Z,0.82
2023-04-30T15:53:36.508Z,0.82
2023-04-30T15:56:05.555Z,0.50
2023-04-30T15:58:35.487Z,0.98
2023-04-30T16:01:04.085Z,0.80
2023-04-30T16:03:32.728Z,0.82
2023-04-30T16:06:02.903Z,0.80
2023-04-30T16:08:31.750Z,1.70
2023-04-30T16:11:01.706Z,1.65
2023-04-30T16:13:30.293Z,0.68
2023-04-30T16:16:00.267Z,1.65
2023-04-30T16:18:29.929Z,0.88
2023-04-30T16:20:58.740Z,0.57
2023-04-30T16:23:27.313Z,0.55
2023-04-30T16:25:56.549Z,1.05
2023-04-30T16:28:28.307Z,0.88
2023-04-30T16:30:57.104Z,1.00
2023-04-30T16:33:27.106Z,0.50
2023-04-30T16:35:55.740Z,0.75
2023-04-30T16:38:24.259Z,0.77
2023-04-30T16:40:52.873Z,1.00
2023-04-30T16:43:21.446Z,2.13
2023-04-30T16:45:50.545Z,0.85
2023-04-30T16:48:19.335Z,0.63
2023-04-30T16:50:49.337Z,1.13
2023-04-30T16:53:17.876Z,0.98
2023-04-30T16:55:46.499Z,1.50
2023-04-30T16:58:15.207Z,0.88
2023-04-30T17:00:43.770Z,0.85
2023-04-30T17:03:12.439Z,0.98
2023-04-30T17:05:41.273Z,1.25
2023-04-30T17:08:11.147Z,0.80
2023-04-30T17:10:40.668Z,1.25
2023-04-30T17:13:09.235Z,0.60
2023-04-30T17:15:37.929Z,0.50
2023-04-30T17:18:07.070Z,0.50
2023-04-30T17:20:35.760Z,0.80
2023-04-30T17:23:04.579Z,0.70
2023-04-30T17:25:35.068Z,0.57
2023-04-30T17:28:03.662Z,2.08
2023-04-30T17:30:32.265Z,1.50
2023-04-30T17:33:10.316Z,0.43
2023-04-30T17:35:42.752Z,0.63
2023-04-30T17:38:11.371Z,1.60
2023-04-30T17:40:41.342Z,0.70
2023-04-30T17:43:09.868Z,1.00
2023-04-30T17:45:38.503Z,1.45
2023-04-30T17:48:07.677Z,0.75
2023-04-30T17:50:36.796Z,1.02
2023-04-30T17:53:05.355Z,1.20
2023-04-30T17:55:33.934Z,1.00
2023-04-30T17:58:05.053Z,1.10
2023-04-30T18:00:34.370Z,1.98
2023-04-30T18:03:02.995Z,1.05
2023-04-30T18:05:33.457Z,1.50
2023-04-30T18:08:03.898Z,1.27
2023-04-30T18:10:32.525Z,2.00
2023-04-30T18:13:01.112Z,1.25
2023-04-30T18:15:31.144Z,2.10
2023-04-30T18:18:00.288Z,1.77
2023-04-30T18:20:28.980Z,0.88
2023-04-30T18:22:57.643Z,1.02
2023-04-30T18:25:27.742Z,1.67
2023-04-30T18:27:56.411Z,1.80
2023-04-30T18:30:24.982Z,1.30
2023-04-30T18:32:55.032Z,0.60
2023-04-30T18:35:23.677Z,0.90
2023-04-30T18:37:52.294Z,1.17
2023-04-30T18:40:21.229Z,1.63
2023-04-30T18:42:49.800Z,2.00
2023-04-30T18:45:18.934Z,1.60
2023-04-30T18:47:47.592Z,2.55
2023-04-30T18:50:26.403Z,2.50
2023-04-30T18:52:55.181Z,2.38
2023-04-30T18:55:24.201Z,1.52
2023-04-30T18:57:52.908Z,1.80
2023-04-30T19:00:22.087Z,3.03
2023-04-30T19:02:50.745Z,1.92
2023-04-30T19:05:19.788Z,1.20
2023-04-30T19:07:49.749Z,1.73
2023-04-30T19:10:18.469Z,1.42
2023-04-30T19:12:48.235Z,1.65
2023-04-30T19:15:17.980Z,1.63
2023-04-30T19:17:46.576Z,1.80
2023-04-30T19:20:15.278Z,1.42
2023-04-30T19:22:43.841Z,1.60
2023-04-30T19:25:14.024Z,2.10
2023-04-30T19:27:44.162Z,1.42
2023-04-30T19:30:14.503Z,1.13
2023-04-30T19:32:43.121Z,2.67
2023-04-30T19:35:12.023Z,2.50
2023-04-30T19:37:40.694Z,2.40
2023-04-30T19:40:11.961Z,1.48
2023-04-30T19:42:42.333Z,2.17
2023-04-30T19:45:12.291Z,1.23
2023-04-30T19:47:41.308Z,2.00
2023-04-30T19:50:10.731Z,1.38
2023-04-30T19:52:39.429Z,1.63
2023-04-30T19:55:08.735Z,1.30
2023-04-30T19:57:37.298Z,2.50
2023-04-30T20:00:09.886Z,2.65
2023-04-30T20:02:38.897Z,2.00
2023-04-30T20:05:10.238Z,2.28
2023-04-30T20:07:38.826Z,2.17
2023-04-30T20:10:09.768Z,3.13
2023-04-30T20:12:38.427Z,1.70
2023-04-30T20:15:09.323Z,1.95
2023-04-30T20:17:37.952Z,1.45
2023-04-30T20:20:07.573Z,3.63
2023-04-30T20:22:36.093Z,1.33
2023-04-30T20:25:05.342Z,1.67
2023-04-30T20:27:34.498Z,1.73
2023-04-30T20:46:25.055Z,1.98
2023-04-30T20:48:54.644Z,1.23
2023-04-30T20:51:23.604Z,1.35
2023-04-30T20:53:52.285Z,2.17
2023-04-30T20:56:21.299Z,1.67
2023-04-30T20:58:49.821Z,2.22
2023-04-30T21:30:17.213Z,3.60
2023-04-30T21:32:47.114Z,2.03
2023-04-30T21:35:16.223Z,1.38
2023-04-30T21:37:44.814Z,1.98
2023-04-30T21:40:13.661Z,1.75
2023-04-30T21:42:42.215Z,2.40
2023-04-30T21:45:11.225Z,0.98
2023-04-30T21:47:42.711Z,1.50
2023-04-30T21:50:12.385Z,1.33
2023-04-30T21:52:41.113Z,1.70
2023-04-30T21:55:10.620Z,1.73
2023-04-30T21:57:39.306Z,2.03
2023-04-30T22:03:25.985Z,2.03
2023-04-30T22:05:55.262Z,2.00
2023-04-30T22:08:23.887Z,1.25
2023-04-30T22:10:57.033Z,0.85
2023-04-30T22:13:25.785Z,1.35
2023-04-30T22:15:54.371Z,2.22
2023-04-30T22:18:24.609Z,0.90
2023-04-30T22:20:54.644Z,2.35
2023-04-30T22:52:56.327Z,1.58
2023-04-30T22:55:25.202Z,1.65
2023-04-30T22:57:54.059Z,1.95
2023-04-30T23:00:24.146Z,2.08
2023-04-30T23:02:52.775Z,2.10
2023-04-30T23:05:21.602Z,1.02
2023-04-30T23:07:50.287Z,1.58
2023-04-30T23:10:20.474Z,2.10
2023-04-30T23:12:49.765Z,1.65
2023-04-30T23:15:18.459Z,1.30
2023-04-30T23:17:47.329Z,1.77
2023-04-30T23:20:16.029Z,1.40
2023-04-30T23:22:44.683Z,2.15
2023-04-30T23:25:13.305Z,2.17
2023-04-30T23:27:44.319Z,1.88
2023-04-30T23:30:13.588Z,1.38
2023-04-30T23:32:42.328Z,1.38
2023-04-30T23:35:11.355Z,2.17
2023-04-30T23:37:39.867Z,2.17
2023-04-30T23:40:10.292Z,1.23
2023-04-30T23:42:38.808Z,1.88
2023-04-30T23:45:10.421Z,2.45
2023-04-30T23:47:39.063Z,1.52
2023-04-30T23:50:09.030Z,2.10
2023-04-30T23:52:37.952Z,1.95
2023-04-30T23:55:07.373Z,1.65
2023-04-30T23:57:35.892Z,1.35
